Time;durP1;ratioP1;P1;durP2;ratioP2;P2;SDS_P1;SDS_P2;PMS_P1;PMS_P2;Temp;Humidity;BMP_temperature;BMP_pressure;BME280_temperature;BME280_humidity;BME280_pressure;Samples;Min_cycle;Max_cycle;Signal;HPM_P1;HPM_P2
2023/09/26 00:00:20;;;;;;;10.00;8.80;;;15.40;99.90;;;;;;5070392;28;20413;-71
2023/09/26 00:02:50;;;;;;;9.20;8.30;;;15.40;99.90;;;;;;5069789;28;20441;-71
2023/09/26 00:05:18;;;;;;;9.27;8.30;;;15.40;99.90;;;;;;5069731;28;20515;-71
2023/09/26 00:07:44;;;;;;;11.30;9.13;;;15.30;99.90;;;;;;5069902;28;20500;-70
2023/09/26 00:10:13;;;;;;;10.47;9.37;;;15.30;99.90;;;;;;5070042;28;20505;-70
2023/09/26 00:12:39;;;;;;;10.30;9.23;;;15.30;99.90;;;;;;5069940;28;20434;-71
2023/09/26 00:15:06;;;;;;;9.63;8.83;;;15.30;99.90;;;;;;5069997;28;20769;-71
2023/09/26 00:17:32;;;;;;;9.70;8.80;;;15.30;99.90;;;;;;5051744;28;20428;-70
2023/09/26 00:19:58;;;;;;;9.27;8.37;;;15.30;99.90;;;;;;5069831;28;20478;-71
2023/09/26 00:22:24;;;;;;;10.90;9.80;;;15.20;99.90;;;;;;5069751;28;20434;-72
2023/09/26 00:24:51;;;;;;;10.17;9.27;;;15.20;99.90;;;;;;5069882;28;20194;-72
2023/09/26 00:27:17;;;;;;;10.03;9.03;;;15.20;99.90;;;;;;5070044;28;20411;-72
2023/09/26 00:29:44;;;;;;;10.00;9.00;;;15.20;99.90;;;;;;5069978;28;20409;-72
2023/09/26 00:32:10;;;;;;;12.30;10.23;;;15.20;99.90;;;;;;5069466;28;20433;-71
2023/09/26 00:34:36;;;;;;;11.60;10.30;;;15.20;99.90;;;;;;5069665;28;20424;-72
2023/09/26 00:37:01;;;;;;;11.00;9.43;;;15.20;99.90;;;;;;5069693;28;20178;-72
2023/09/26 00:39:27;;;;;;;9.70;8.70;;;15.20;99.90;;;;;;5069772;28;20171;-71
2023/09/26 00:41:53;;;;;;;10.83;9.77;;;15.20;99.90;;;;;;5069518;28;20193;-71
2023/09/26 00:44:18;;;;;;;10.90;9.90;;;15.20;99.90;;;;;;5069622;28;20464;-71
2023/09/26 00:46:45;;;;;;;10.07;9.07;;;15.20;99.90;;;;;;5069372;28;20192;-72
2023/09/26 00:49:11;;;;;;;11.00;10.00;;;15.10;99.90;;;;;;5072352;28;20233;-71
2023/09/26 00:51:38;;;;;;;9.43;8.63;;;15.10;99.90;;;;;;5072837;28;20470;-70
2023/09/26 00:54:04;;;;;;;9.97;8.97;;;15.10;99.90;;;;;;5072906;28;20176;-72
2023/09/26 00:56:31;;;;;;;11.17;10.03;;;15.10;99.90;;;;;;5073130;28;20410;-72
2023/09/26 00:58:58;;;;;;;10.23;9.30;;;15.00;99.90;;;;;;5072963;28;20428;-71
2023/09/26 01:01:26;;;;;;;9.77;8.77;;;15.00;99.90;;;;;;5072995;28;20582;-71
2023/09/26 01:03:54;;;;;;;10.70;9.77;;;15.00;99.90;;;;;;5072931;28;20793;-71
2023/09/26 01:06:20;;;;;;;10.07;9.17;;;15.00;99.90;;;;;;5072877;28;20426;-71
2023/09/26 01:08:46;;;;;;;9.37;8.57;;;15.00;99.90;;;;;;5072692;28;20775;-71
2023/09/26 01:11:13;;;;;;;11.03;9.40;;;15.00;99.90;;;;;;5072587;28;20275;-71
2023/09/26 01:13:39;;;;;;;10.60;9.60;;;15.00;99.90;;;;;;5072507;28;20584;-70
2023/09/26 01:16:15;;;;;;;10.00;9.10;;;15.00;99.90;;;;;;5072490;28;20454;-71
2023/09/26 01:18:41;;;;;;;10.13;9.13;;;15.00;99.90;;;;;;5072580;28;20198;-71
2023/09/26 01:21:07;;;;;;;11.97;10.87;;;15.00;99.90;;;;;;5072505;28;20961;-71
2023/09/26 01:23:36;;;;;;;10.90;9.80;;;15.00;99.90;;;;;;5070481;28;20189;-71
2023/09/26 01:26:02;;;;;;;10.40;9.40;;;15.00;99.90;;;;;;5054388;28;20418;-71
2023/09/26 01:28:27;;;;;;;9.80;8.90;;;15.00;99.90;;;;;;5072627;28;20401;-71
2023/09/26 01:30:53;;;;;;;11.73;10.53;;;15.00;99.90;;;;;;5072295;28;20201;-71
2023/09/26 01:33:21;;;;;;;12.10;10.80;;;15.00;99.90;;;;;;5072204;28;20190;-71
2023/09/26 01:35:48;;;;;;;10.43;9.43;;;14.90;99.90;;;;;;5072342;28;20793;-71
2023/09/26 01:38:14;;;;;;;10.27;9.27;;;14.90;99.90;;;;;;5072183;28;20448;-71
2023/09/26 01:40:41;;;;;;;10.93;9.87;;;14.90;99.90;;;;;;5071917;28;20563;-70
2023/09/26 01:43:07;;;;;;;10.10;9.10;;;14.90;99.90;;;;;;5071978;28;20413;-71
2023/09/26 01:45:32;;;;;;;12.00;10.80;;;15.00;99.90;;;;;;5072532;28;20515;-72
2023/09/26 01:47:59;;;;;;;10.27;9.27;;;15.00;99.90;;;;;;5073016;28;20409;-72
2023/09/26 01:50:25;;;;;;;9.33;8.50;;;14.90;99.90;;;;;;5072929;28;20216;-72
2023/09/26 01:52:50;;;;;;;12.47;11.47;;;14.90;99.90;;;;;;5072434;28;20421;-72
2023/09/26 01:55:18;;;;;;;10.17;9.27;;;14.90;99.90;;;;;;5072660;28;20177;-73
2023/09/26 01:57:44;;;;;;;10.70;9.80;;;14.80;99.90;;;;;;5081461;28;20179;-73
2023/09/26 02:00:11;;;;;;;10.80;9.70;;;14.80;99.90;;;;;;5091206;28;20435;-71
2023/09/26 02:02:43;;;;;;;11.03;10.07;;;14.80;99.90;;;;;;5091850;28;20433;-72
2023/09/26 02:05:11;;;;;;;11.27;10.17;;;14.70;99.90;;;;;;5092142;28;20451;-71
2023/09/26 02:07:37;;;;;;;12.57;11.17;;;14.70;99.90;;;;;;5092216;28;20499;-74
2023/09/26 02:10:03;;;;;;;12.37;9.17;;;14.60;99.90;;;;;;5073561;28;20545;-71
2023/09/26 02:12:30;;;;;;;16.83;10.50;;;14.60;99.90;;;;;;5091662;28;20447;-71
2023/09/26 02:14:56;;;;;;;11.77;10.67;;;14.60;99.90;;;;;;5091635;28;20415;-71
2023/09/26 02:17:22;;;;;;;11.97;10.87;;;14.60;99.90;;;;;;5077350;28;20762;-72
2023/09/26 02:19:47;;;;;;;12.83;11.17;;;14.60;99.90;;;;;;5071418;28;20625;-71
2023/09/26 02:22:13;;;;;;;12.37;11.27;;;14.60;99.90;;;;;;5071124;28;20195;-71
2023/09/26 02:24:38;;;;;;;12.03;10.20;;;14.50;99.90;;;;;;5071575;28;20205;-71
2023/09/26 02:27:04;;;;;;;11.53;10.10;;;14.50;99.90;;;;;;5071643;28;20645;-71
2023/09/26 02:29:29;;;;;;;12.10;10.97;;;14.50;99.90;;;;;;5071479;28;20177;-71
2023/09/26 02:31:55;;;;;;;11.63;10.67;;;14.50;99.90;;;;;;5071440;28;20828;-71
2023/09/26 02:34:22;;;;;;;12.00;10.80;;;14.40;99.90;;;;;;5071773;28;20238;-71
2023/09/26 02:36:48;;;;;;;16.83;11.50;;;14.40;99.90;;;;;;5071311;28;20177;-71
2023/09/26 02:39:14;;;;;;;13.30;12.10;;;14.40;99.90;;;;;;5071357;28;20473;-71
2023/09/26 02:41:39;;;;;;;13.97;12.27;;;14.40;99.90;;;;;;5070854;28;20523;-71
2023/09/26 02:44:06;;;;;;;12.63;11.43;;;14.40;99.90;;;;;;5070766;28;20202;-71
2023/09/26 02:46:32;;;;;;;12.67;11.20;;;14.30;99.90;;;;;;5070931;28;20258;-71
2023/09/26 02:49:00;;;;;;;12.90;11.70;;;14.30;99.90;;;;;;5070822;28;20507;-71
2023/09/26 02:51:26;;;;;;;12.80;11.00;;;14.40;99.90;;;;;;5070738;28;20820;-71
2023/09/26 02:53:51;;;;;;;13.80;11.53;;;14.30;99.90;;;;;;5071005;28;20420;-71
2023/09/26 02:56:17;;;;;;;14.30;12.90;;;14.40;99.90;;;;;;5070805;28;20413;-71
2023/09/26 02:58:43;;;;;;;12.70;11.50;;;14.40;99.90;;;;;;5070809;28;20176;-70
2023/09/26 03:01:13;;;;;;;14.67;12.93;;;14.30;99.90;;;;;;5070653;28;20190;-71
2023/09/26 03:03:39;;;;;;;15.10;13.50;;;14.30;99.90;;;;;;5070723;28;20645;-70
2023/09/26 03:06:04;;;;;;;25.27;14.33;;;14.30;99.90;;;;;;5070517;28;20512;-71
2023/09/26 03:08:30;;;;;;;14.40;13.00;;;14.30;99.90;;;;;;5070797;28;20536;-71
2023/09/26 03:11:02;;;;;;;15.83;13.87;;;14.30;99.90;;;;;;5070378;28;20198;-71
2023/09/26 03:13:32;;;;;;;15.60;13.83;;;14.30;99.90;;;;;;5070621;28;20529;-73
2023/09/26 03:15:58;;;;;;;16.37;14.67;;;14.20;99.90;;;;;;5070667;28;20903;-72
2023/09/26 03:18:25;;;;;;;14.13;12.83;;;14.30;99.90;;;;;;5070627;28;20414;-71
2023/09/26 03:20:50;;;;;;;17.00;14.27;;;14.20;99.90;;;;;;5070062;28;20205;-71
2023/09/26 03:23:16;;;;;;;16.00;14.30;;;14.20;99.90;;;;;;5070309;28;20436;-70
2023/09/26 03:25:41;;;;;;;15.40;13.90;;;14.30;99.90;;;;;;5070332;28;20743;-70
2023/09/26 03:28:07;;;;;;;16.37;14.67;;;14.20;99.90;;;;;;5070437;28;20265;-71
2023/09/26 03:30:32;;;;;;;16.37;14.63;;;14.20;99.90;;;;;;5070367;28;20171;-71
2023/09/26 03:32:58;;;;;;;16.23;14.53;;;14.20;99.90;;;;;;5052152;28;20166;-71
2023/09/26 03:35:24;;;;;;;16.07;14.37;;;14.10;99.90;;;;;;5070332;28;20166;-71
2023/09/26 03:37:49;;;;;;;17.07;14.10;;;14.20;99.90;;;;;;5070317;28;20631;-72
2023/09/26 03:40:15;;;;;;;19.33;14.37;;;14.10;99.90;;;;;;5070166;28;20185;-71
2023/09/26 03:42:40;;;;;;;14.97;13.47;;;14.10;99.90;;;;;;5070052;28;20269;-72
2023/09/26 03:45:07;;;;;;;15.47;13.70;;;14.20;99.90;;;;;;5070014;28;20775;-71
2023/09/26 03:47:33;;;;;;;15.80;14.20;;;14.10;99.90;;;;;;5070162;28;20206;-71
2023/09/26 03:49:59;;;;;;;16.53;14.87;;;14.20;99.90;;;;;;5070082;28;20509;-71
2023/09/26 03:52:24;;;;;;;17.00;15.30;;;14.10;99.90;;;;;;5099001;22;20214;-71
2023/09/26 03:54:50;;;;;;;15.53;14.03;;;14.10;99.90;;;;;;5090679;28;20173;-69
2023/09/26 03:57:16;;;;;;;16.30;14.10;;;14.10;99.90;;;;;;5084029;28;20208;-69
2023/09/26 03:59:41;;;;;;;14.63;13.20;;;14.00;99.90;;;;;;5091610;28;20189;-69
2023/09/26 04:02:07;;;;;;;16.13;14.27;;;14.00;99.90;;;;;;5091367;28;20199;-71
2023/09/26 04:04:34;;;;;;;18.37;16.23;;;14.00;99.90;;;;;;5091144;28;20200;-70
2023/09/26 04:07:00;;;;;;;17.90;16.00;;;14.10;99.90;;;;;;5068311;28;20438;-70
2023/09/26 04:09:26;;;;;;;17.50;14.80;;;14.00;99.90;;;;;;5069767;28;20408;-70
2023/09/26 04:11:51;;;;;;;17.93;15.90;;;14.00;99.90;;;;;;5086408;28;20424;-70
2023/09/26 04:14:17;;;;;;;21.90;18.17;;;14.00;99.90;;;;;;5084389;28;20178;-70
2023/09/26 04:16:42;;;;;;;18.50;16.63;;;14.00;99.90;;;;;;5071050;28;20181;-70
2023/09/26 04:19:11;;;;;;;20.03;15.93;;;14.00;99.90;;;;;;5082685;28;20199;-70
2023/09/26 04:21:37;;;;;;;20.50;15.87;;;14.00;99.90;;;;;;5091384;28;20288;-70
2023/09/26 04:24:04;;;;;;;20.43;17.77;;;14.00;99.90;;;;;;5076922;28;20574;-70
2023/09/26 04:26:30;;;;;;;23.73;18.40;;;14.00;99.90;;;;;;5075407;28;20162;-69
2023/09/26 04:28:56;;;;;;;19.63;17.63;;;13.90;99.90;;;;;;5075419;28;20409;-69
2023/09/26 04:31:21;;;;;;;19.50;17.67;;;13.90;99.90;;;;;;5074738;28;20809;-69
2023/09/26 04:33:48;;;;;;;20.60;18.40;;;13.90;99.90;;;;;;5074773;28;20167;-70
2023/09/26 04:36:14;;;;;;;20.63;18.50;;;13.90;99.90;;;;;;5074988;28;20632;-69
2023/09/26 04:38:40;;;;;;;22.33;19.20;;;13.90;99.90;;;;;;5074920;28;20754;-70
2023/09/26 04:41:06;;;;;;;21.23;18.97;;;13.90;99.90;;;;;;5080210;28;20950;-70
2023/09/26 04:43:32;;;;;;;23.83;21.23;;;13.90;99.90;;;;;;5076827;28;20189;-70
2023/09/26 04:45:57;;;;;;;18.83;16.60;;;13.80;99.90;;;;;;5094945;28;20538;-71
2023/09/26 04:48:23;;;;;;;26.93;22.63;;;13.90;99.90;;;;;;5094985;28;20755;-69
2023/09/26 04:50:50;;;;;;;27.03;24.17;;;13.90;99.90;;;;;;5094928;28;20255;-70
2023/09/26 04:53:16;;;;;;;33.77;29.43;;;13.90;99.90;;;;;;5094617;28;20446;-74
2023/09/26 04:55:42;;;;;;;19.23;17.17;;;13.80;99.90;;;;;;5094895;28;20185;-72
2023/09/26 04:58:09;;;;;;;20.60;17.73;;;13.80;99.90;;;;;;5094661;28;20546;-72
2023/09/26 05:00:36;;;;;;;21.00;17.00;;;13.80;99.90;;;;;;5094996;28;20412;-72
2023/09/26 05:03:02;;;;;;;21.43;16.47;;;13.80;99.90;;;;;;5094519;28;20443;-72
2023/09/26 05:05:28;;;;;;;22.07;18.20;;;13.70;99.90;;;;;;5094818;28;20508;-72
2023/09/26 05:07:54;;;;;;;22.33;19.83;;;13.70;99.90;;;;;;5094696;28;20213;-72
2023/09/26 05:10:20;;;;;;;22.00;17.30;;;13.70;99.90;;;;;;5095008;28;20470;-72
2023/09/26 05:12:46;;;;;;;21.07;18.90;;;13.70;99.90;;;;;;5095104;28;20523;-72
2023/09/26 05:15:14;;;;;;;20.80;17.40;;;13.70;99.90;;;;;;5086267;28;20439;-72
2023/09/26 05:17:45;;;;;;;18.07;16.30;;;13.60;99.90;;;;;;5097597;28;20424;-72
2023/09/26 05:20:11;;;;;;;21.50;19.20;;;13.60;99.90;;;;;;5099053;28;21140;-72
2023/09/26 05:22:47;;;;;;;23.70;21.40;;;13.60;99.90;;;;;;5101200;28;20444;-72
2023/09/26 05:25:13;;;;;;;21.50;19.40;;;13.60;99.90;;;;;;5098969;28;20483;-75
2023/09/26 05:27:39;;;;;;;26.20;23.40;;;13.60;99.90;;;;;;5096760;28;20408;-72
2023/09/26 05:30:11;;;;;;;22.40;18.70;;;13.70;99.90;;;;;;5094077;28;20711;-72
2023/09/26 05:32:38;;;;;;;23.67;19.30;;;13.70;99.90;;;;;;5093564;28;20453;-72
2023/09/26 05:35:06;;;;;;;22.67;19.83;;;13.70;99.90;;;;;;5093574;28;20418;-72
2023/09/26 05:37:32;;;;;;;24.93;22.23;;;13.70;99.90;;;;;;5094018;28;20411;-71
2023/09/26 05:39:58;;;;;;;24.27;19.97;;;13.80;99.90;;;;;;5093825;28;20424;-72
2023/09/26 05:42:23;;;;;;;23.90;18.87;;;13.80;99.90;;;;;;5093472;28;20558;-71
2023/09/26 05:44:49;;;;;;;22.90;20.50;;;13.80;99.90;;;;;;5093848;28;20228;-71
2023/09/26 05:47:15;;;;;;;25.47;22.83;;;13.80;99.90;;;;;;5090504;28;20212;-72
2023/09/26 05:49:40;;;;;;;25.73;23.10;;;13.80;99.90;;;;;;5073448;28;20303;-72
2023/09/26 05:52:06;;;;;;;21.20;17.87;;;13.90;99.90;;;;;;5073083;28;20213;-71
2023/09/26 05:54:33;;;;;;;21.50;19.17;;;13.90;99.90;;;;;;5073321;28;20513;-72
2023/09/26 05:56:59;;;;;;;24.17;19.90;;;14.00;99.90;;;;;;5072930;28;20186;-71
2023/09/26 05:59:24;;;;;;;18.80;16.90;;;14.50;99.90;;;;;;5073004;28;20419;-71
2023/09/26 06:01:50;;;;;;;20.80;18.60;;;14.60;99.90;;;;;;5073010;28;20456;-71
2023/09/26 06:04:16;;;;;;;21.33;19.03;;;14.90;99.90;;;;;;5072897;28;20277;-72
2023/09/26 06:06:42;;;;;;;21.23;18.80;;;15.10;99.90;;;;;;5073112;28;20173;-71
2023/09/26 06:09:08;;;;;;;23.57;18.30;;;15.10;99.90;;;;;;5072965;28;20853;-72
2023/09/26 06:11:34;;;;;;;14.90;13.30;;;15.40;99.90;;;;;;5072840;28;20468;-71
2023/09/26 06:14:00;;;;;;;13.97;12.67;;;15.70;99.90;;;;;;5068677;28;20182;-72
2023/09/26 06:16:25;;;;;;;16.90;12.90;;;16.00;99.90;;;;;;5093300;28;20193;-69
2023/09/26 06:18:52;;;;;;;20.97;16.87;;;16.30;99.90;;;;;;5093203;28;20180;-70
2023/09/26 06:21:18;;;;;;;13.43;12.23;;;17.00;99.90;;;;;;5093465;28;20638;-69
2023/09/26 06:23:44;;;;;;;13.93;10.60;;;17.00;99.90;;;;;;5092907;28;20442;-70
2023/09/26 06:26:09;;;;;;;11.90;10.70;;;16.50;99.90;;;;;;5092906;28;20817;-70
2023/09/26 06:28:35;;;;;;;14.23;12.93;;;17.00;99.90;;;;;;5093005;28;20179;-69
2023/09/26 06:31:05;;;;;;;12.90;11.80;;;17.70;99.90;;;;;;5092949;28;20180;-72
2023/09/26 06:33:31;;;;;;;12.10;11.00;;;17.80;99.90;;;;;;5074626;28;20649;-70
2023/09/26 06:35:56;;;;;;;11.47;10.37;;;18.00;99.90;;;;;;5092971;28;20924;-70
2023/09/26 06:38:22;;;;;;;12.83;11.50;;;17.60;99.90;;;;;;5092793;28;20172;-70
2023/09/26 06:40:48;;;;;;;14.87;13.50;;;17.80;99.90;;;;;;5092785;28;20180;-70
2023/09/26 06:43:13;;;;;;;12.90;11.70;;;18.30;99.90;;;;;;5092438;28;20231;-70
2023/09/26 06:45:39;;;;;;;14.07;12.00;;;18.70;99.90;;;;;;5091935;28;20565;-70
2023/09/26 06:48:06;;;;;;;12.37;11.07;;;18.80;99.90;;;;;;5092529;28;20162;-69
2023/09/26 06:50:32;;;;;;;12.33;10.47;;;19.00;99.90;;;;;;5093344;28;20171;-72
2023/09/26 06:52:57;;;;;;;11.70;10.60;;;18.80;99.90;;;;;;5072140;28;20807;-69
2023/09/26 06:55:23;;;;;;;19.27;12.13;;;18.70;99.90;;;;;;5072337;28;20506;-70
2023/09/26 06:57:49;;;;;;;15.47;12.33;;;18.20;99.90;;;;;;5072373;28;20185;-72
2023/09/26 07:00:19;;;;;;;15.37;13.80;;;18.20;99.90;;;;;;5072183;28;20172;-71
2023/09/26 07:02:46;;;;;;;17.50;13.77;;;19.10;99.90;;;;;;5072160;28;20209;-70
2023/09/26 07:05:12;;;;;;;13.20;11.80;;;19.30;99.90;;;;;;5072018;28;20936;-71
2023/09/26 07:07:38;;;;;;;11.40;10.40;;;20.00;99.90;;;;;;5086373;28;20413;-71
2023/09/26 07:10:07;;;;;;;11.40;10.30;;;20.60;99.90;;;;;;5092287;28;20419;-70
2023/09/26 07:12:32;;;;;;;12.87;11.50;;;20.50;99.90;;;;;;5091792;28;20462;-70
2023/09/26 07:14:58;;;;;;;10.93;9.97;;;19.90;99.90;;;;;;5077146;28;20451;-71
2023/09/26 07:17:23;;;;;;;11.83;10.83;;;19.20;99.90;;;;;;5071811;28;20171;-70
2023/09/26 07:19:50;;;;;;;12.80;11.50;;;20.50;99.90;;;;;;5071745;28;20182;-71
2023/09/26 07:22:15;;;;;;;13.23;11.87;;;20.60;99.90;;;;;;5071427;28;20582;-70
2023/09/26 07:24:41;;;;;;;11.50;10.40;;;21.30;99.90;;;;;;5071558;28;20480;-71
2023/09/26 07:27:07;;;;;;;12.90;11.73;;;21.20;99.90;;;;;;5071838;28;20178;-71
2023/09/26 07:29:33;;;;;;;11.00;9.90;;;21.40;99.90;;;;;;5071694;28;20195;-70
2023/09/26 07:31:59;;;;;;;13.00;11.73;;;21.80;99.90;;;;;;5071833;28;20947;-71
2023/09/26 07:34:25;;;;;;;13.13;11.73;;;22.90;99.90;;;;;;5072076;28;20177;-71
2023/09/26 07:36:51;;;;;;;10.60;9.60;;;22.00;99.90;;;;;;5071762;28;20416;-73
2023/09/26 07:39:17;;;;;;;11.40;10.40;;;20.50;99.90;;;;;;5071645;28;20164;-71
2023/09/26 07:41:43;;;;;;;11.33;9.67;;;20.50;99.90;;;;;;5071729;28;20439;-71
2023/09/26 07:44:09;;;;;;;11.53;10.30;;;20.90;99.90;;;;;;5071647;28;20205;-72
2023/09/26 07:46:34;;;;;;;11.90;10.43;;;21.30;99.90;;;;;;5072021;28;20230;-72
2023/09/26 07:49:00;;;;;;;12.47;11.17;;;21.90;99.90;;;;;;5071865;28;20610;-74
2023/09/26 07:51:25;;;;;;;13.67;11.50;;;21.30;99.90;;;;;;5069598;28;20174;-72
2023/09/26 07:53:51;;;;;;;12.20;11.00;;;21.60;99.90;;;;;;5083580;28;20165;-72
2023/09/26 07:56:17;;;;;;;13.07;11.83;;;22.10;99.90;;;;;;5092165;28;20179;-71
2023/09/26 07:58:42;;;;;;;11.30;10.30;;;21.90;99.90;;;;;;5096645;28;20173;-71
2023/09/26 08:01:09;;;;;;;12.50;11.33;;;22.00;99.90;;;;;;5097337;28;20172;-71
2023/09/26 08:03:38;;;;;;;12.63;10.50;;;22.20;99.90;;;;;;5111986;28;20723;-71
2023/09/26 08:06:05;;;;;;;11.43;10.40;;;23.50;99.90;;;;;;5100350;28;20490;-71
2023/09/26 08:08:31;;;;;;;10.73;9.70;;;23.00;99.90;;;;;;5096150;28;20411;-71
2023/09/26 08:11:08;;;;;;;11.93;10.83;;;23.40;99.90;;;;;;5096044;28;20500;-71
2023/09/26 08:13:34;;;;;;;12.17;10.93;;;23.10;99.90;;;;;;5092504;28;20427;-71
2023/09/26 08:16:00;;;;;;;13.40;12.10;;;23.50;99.90;;;;;;5075953;28;20412;-71
2023/09/26 08:18:25;;;;;;;12.17;11.10;;;23.50;99.90;;;;;;5075388;28;20565;-72
2023/09/26 08:20:55;;;;;;;11.67;10.57;;;24.10;99.90;;;;;;5075063;28;20941;-73
2023/09/26 08:23:21;;;;;;;11.90;10.77;;;24.50;99.90;;;;;;5075254;28;20555;-71
2023/09/26 08:25:47;;;;;;;11.17;10.00;;;23.80;99.90;;;;;;5075012;28;20865;-71
2023/09/26 08:28:12;;;;;;;11.70;10.60;;;24.60;99.90;;;;;;5074865;28;20477;-71
2023/09/26 08:30:38;;;;;;;12.00;10.90;;;24.10;99.90;;;;;;5074920;28;20550;-71
2023/09/26 08:33:04;;;;;;;13.90;12.70;;;24.10;99.90;;;;;;5074456;28;20185;-71
2023/09/26 08:35:32;;;;;;;11.33;10.23;;;24.90;99.90;;;;;;5075745;28;20174;-71
2023/09/26 08:37:58;;;;;;;13.27;12.07;;;25.50;99.90;;;;;;5081119;28;20554;-71
2023/09/26 08:40:27;;;;;;;14.00;12.03;;;24.80;99.90;;;;;;5081839;28;20420;-72
2023/09/26 08:42:57;;;;;;;12.13;11.03;;;24.50;99.90;;;;;;5082391;28;20202;-71
2023/09/26 08:45:25;;;;;;;14.20;11.87;;;24.50;99.90;;;;;;5074576;28;20459;-72
2023/09/26 08:47:54;;;;;;;11.63;10.53;;;24.00;99.90;;;;;;5074404;28;20412;-72
2023/09/26 08:50:21;;;;;;;12.07;10.97;;;23.60;99.90;;;;;;5074888;28;20416;-72
2023/09/26 08:52:47;;;;;;;11.87;10.60;;;23.80;99.90;;;;;;5074334;28;20459;-72
2023/09/26 08:55:12;;;;;;;11.80;9.27;;;23.40;99.90;;;;;;5074532;28;20431;-73
2023/09/26 08:57:38;;;;;;;11.17;10.17;;;23.40;99.90;;;;;;5074547;28;20190;-73
2023/09/26 09:00:07;;;;;;;12.37;11.17;;;23.60;99.90;;;;;;5074466;28;20694;-73
2023/09/26 09:02:33;;;;;;;10.07;9.23;;;23.40;99.90;;;;;;5056385;28;20448;-76
2023/09/26 09:04:59;;;;;;;13.10;11.33;;;23.60;99.90;;;;;;5074603;28;20501;-71
2023/09/26 09:07:25;;;;;;;13.20;11.77;;;23.50;99.90;;;;;;5074507;28;20522;-73
2023/09/26 09:10:07;;;;;;;12.10;10.87;;;22.70;99.90;;;;;;5073852;28;20440;-71
2023/09/26 09:12:34;;;;;;;10.80;9.77;;;22.90;99.90;;;;;;5066875;28;20198;-73
2023/09/26 09:15:00;;;;;;;15.70;12.70;;;23.60;99.90;;;;;;5082605;28;20445;-75
2023/09/26 09:17:26;;;;;;;11.70;10.60;;;23.50;99.90;;;;;;5076381;28;20422;-75
2023/09/26 09:19:52;;;;;;;11.90;10.90;;;23.20;99.90;;;;;;5094419;28;20188;-73
2023/09/26 09:22:20;;;;;;;11.37;9.67;;;22.90;99.90;;;;;;5094213;28;20443;-73
2023/09/26 09:24:54;;;;;;;14.33;9.73;;;23.00;99.90;;;;;;5094190;28;20458;-73
2023/09/26 09:27:29;;;;;;;10.83;9.83;;;22.90;99.90;;;;;;5092221;28;20419;-73
2023/09/26 09:30:19;;;;;;;11.60;10.13;;;23.10;99.90;;;;;;5088607;28;20418;-73
2023/09/26 09:32:45;;;;;;;11.47;10.27;;;22.80;99.90;;;;;;5094024;28;20436;-73
2023/09/26 09:35:11;;;;;;;10.73;8.80;;;22.10;99.90;;;;;;5094233;28;20957;-73
2023/09/26 09:37:37;;;;;;;9.20;8.40;;;22.50;99.90;;;;;;5094020;28;20418;-73
2023/09/26 09:40:05;;;;;;;11.47;8.20;;;22.80;99.90;;;;;;5093703;28;20414;-73
2023/09/26 09:42:30;;;;;;;8.50;7.70;;;22.80;99.90;;;;;;5093818;28;20199;-73
2023/09/26 09:44:56;;;;;;;9.30;8.43;;;22.80;99.90;;;;;;5093755;28;20802;-73
2023/09/26 09:47:23;;;;;;;10.43;9.30;;;22.60;99.90;;;;;;5094427;28;20204;-73
2023/09/26 09:49:51;;;;;;;9.10;8.03;;;22.50;99.90;;;;;;5093957;28;20421;-74
2023/09/26 09:52:21;;;;;;;10.00;8.50;;;22.10;99.90;;;;;;5110455;22;20532;-70
2023/09/26 09:54:48;;;;;;;9.83;8.83;;;21.90;99.90;;;;;;5073592;28;20793;-67
2023/09/26 09:57:16;;;;;;;9.10;8.30;;;21.80;99.90;;;;;;5073419;28;20453;-70
2023/09/26 09:59:47;;;;;;;8.70;7.80;;;21.80;99.90;;;;;;5073313;28;20902;-66
2023/09/26 10:02:16;;;;;;;8.50;7.57;;;21.70;99.90;;;;;;5067952;28;20469;-66
2023/09/26 10:04:44;;;;;;;8.63;7.80;;;22.00;99.90;;;;;;5052895;28;20459;-67
2023/09/26 10:07:11;;;;;;;7.93;7.23;;;22.00;99.90;;;;;;5052967;28;20422;-67
2023/09/26 10:09:39;;;;;;;8.27;7.43;;;21.80;99.90;;;;;;5053150;28;20422;-67
2023/09/26 10:12:06;;;;;;;8.30;7.50;;;21.90;99.90;;;;;;5052873;28;20453;-66
2023/09/26 10:14:32;;;;;;;8.43;7.63;;;21.60;99.90;;;;;;5056665;28;20415;-68
2023/09/26 10:16:59;;;;;;;7.90;7.10;;;21.80;99.90;;;;;;5073441;28;20800;-68
2023/09/26 10:19:28;;;;;;;8.97;7.00;;;21.90;99.90;;;;;;5072601;28;20455;-68
2023/09/26 10:22:19;;;;;;;6.70;6.20;;;22.00;99.90;;;;;;5072637;28;20431;-69
2023/09/26 10:24:47;;;;;;;7.50;6.70;;;22.00;99.90;;;;;;5073274;28;20454;-66
2023/09/26 10:27:16;;;;;;;6.87;6.20;;;21.70;99.90;;;;;;5072647;28;20410;-66
2023/09/26 10:29:42;;;;;;;7.03;6.43;;;21.50;99.90;;;;;;5054672;28;20422;-68
2023/09/26 10:32:09;;;;;;;8.30;6.47;;;21.60;99.90;;;;;;5072518;28;20478;-67
2023/09/26 10:34:36;;;;;;;7.30;6.70;;;21.60;99.90;;;;;;5072380;28;20453;-68
2023/09/26 10:37:06;;;;;;;7.23;6.23;;;21.90;99.90;;;;;;5072748;28;20473;-71
2023/09/26 10:39:34;;;;;;;9.20;6.90;;;21.70;99.90;;;;;;5072864;28;20398;-66
2023/09/26 10:42:06;;;;;;;6.40;5.90;;;21.60;99.90;;;;;;5072423;28;20444;-65
2023/09/26 10:44:32;;;;;;;7.30;6.60;;;21.50;99.90;;;;;;5072371;28;20820;-70
2023/09/26 10:46:57;;;;;;;7.63;6.63;;;21.50;99.90;;;;;;5072775;28;20410;-67
2023/09/26 10:49:23;;;;;;;7.00;6.10;;;21.50;99.90;;;;;;5072205;28;20562;-66
2023/09/26 10:51:49;;;;;;;7.30;6.50;;;21.50;99.90;;;;;;5072148;28;20256;-67
2023/09/26 10:54:15;;;;;;;7.30;6.60;;;21.70;99.90;;;;;;5072161;28;20175;-67
2023/09/26 10:56:50;;;;;;;5.93;5.43;;;21.80;99.90;;;;;;5072117;28;20173;-67
2023/09/26 10:59:17;;;;;;;6.77;6.17;;;21.70;99.90;;;;;;5072229;28;20418;-66
2023/09/26 11:01:45;;;;;;;10.00;6.43;;;21.90;99.90;;;;;;5072364;28;20507;-67
2023/09/26 11:04:11;;;;;;;7.53;6.83;;;21.90;99.90;;;;;;5054882;28;20417;-68
2023/09/26 11:06:37;;;;;;;6.53;5.83;;;21.90;99.90;;;;;;5049635;28;20910;-67
2023/09/26 11:09:03;;;;;;;7.63;6.83;;;22.00;99.90;;;;;;5064148;28;20235;-68
2023/09/26 11:11:29;;;;;;;6.47;5.90;;;21.90;99.90;;;;;;5071725;28;20438;-68
2023/09/26 11:13:55;;;;;;;9.37;6.63;;;22.00;99.90;;;;;;5065667;28;20926;-68
2023/09/26 11:16:21;;;;;;;6.03;5.43;;;22.10;99.90;;;;;;5051908;28;20643;-69
2023/09/26 11:18:54;;;;;;;6.60;5.90;;;22.40;99.90;;;;;;5051804;28;20449;-70
2023/09/26 11:21:20;;;;;;;6.70;5.70;;;22.40;99.90;;;;;;5051794;28;20171;-69
2023/09/26 11:23:46;;;;;;;6.90;6.30;;;22.50;99.90;;;;;;5051634;28;20439;-74
2023/09/26 11:26:11;;;;;;;8.03;6.40;;;22.30;99.90;;;;;;5051684;28;20201;-65
2023/09/26 11:28:38;;;;;;;10.10;7.33;;;22.40;99.90;;;;;;5034359;28;20181;-69
2023/09/26 11:31:04;;;;;;;6.93;6.40;;;22.60;99.90;;;;;;5051497;28;20180;-65
2023/09/26 11:33:30;;;;;;;6.30;5.70;;;22.70;99.90;;;;;;5051329;28;20782;-65
2023/09/26 11:35:56;;;;;;;7.13;6.43;;;22.70;99.90;;;;;;5051729;28;20444;-65
2023/09/26 11:38:22;;;;;;;9.07;6.80;;;22.60;99.90;;;;;;5051589;28;20447;-66
2023/09/26 11:40:48;;;;;;;12.50;7.50;;;22.50;99.90;;;;;;5051789;28;20808;-66
2023/09/26 11:43:13;;;;;;;9.00;5.43;;;22.60;99.90;;;;;;5051167;28;20612;-69
2023/09/26 11:45:39;;;;;;;7.43;6.67;;;22.60;99.90;;;;;;5051587;28;20201;-65
2023/09/26 11:48:08;;;;;;;9.50;6.20;;;22.50;99.90;;;;;;5051493;28;20170;-65
2023/09/26 11:50:35;;;;;;;8.73;6.17;;;22.80;99.90;;;;;;5051499;28;20186;-66
2023/09/26 11:53:02;;;;;;;8.20;5.60;;;22.80;99.90;;;;;;5050971;28;20454;-67
2023/09/26 11:55:31;;;;;;;6.77;6.17;;;22.90;99.90;;;;;;5051372;28;20420;-69
2023/09/26 11:57:59;;;;;;;6.90;5.10;;;22.80;99.90;;;;;;5051362;28;20416;-67
2023/09/26 12:00:26;;;;;;;40.20;33.37;;;22.80;99.90;;;;;;5051335;28;20425;-67
2023/09/26 12:02:52;;;;;;;15.47;12.80;;;23.10;99.90;;;;;;5051256;28;20438;-69
2023/09/26 12:05:20;;;;;;;7.37;6.57;;;23.20;99.90;;;;;;5051214;28;20465;-68
2023/09/26 12:07:47;;;;;;;6.50;4.93;;;23.30;99.90;;;;;;5051221;28;20601;-68
2023/09/26 12:10:13;;;;;;;9.57;8.53;;;23.30;99.90;;;;;;5051132;28;20866;-68
2023/09/26 12:12:39;;;;;;;6.83;6.30;;;23.40;99.90;;;;;;5051070;28;20494;-68
2023/09/26 12:15:15;;;;;;;7.17;6.10;;;23.20;99.90;;;;;;5058867;28;20481;-68
2023/09/26 12:17:41;;;;;;;8.87;5.60;;;23.10;99.90;;;;;;5071348;28;20404;-68
2023/09/26 12:20:08;;;;;;;6.27;5.67;;;23.10;99.90;;;;;;5071156;28;20404;-68
2023/09/26 12:22:33;;;;;;;5.83;5.20;;;23.20;99.90;;;;;;5070964;28;20193;-68
2023/09/26 12:24:59;;;;;;;7.40;5.87;;;23.10;99.90;;;;;;5071026;28;20978;-68
2023/09/26 12:27:25;;;;;;;5.60;5.20;;;23.40;99.90;;;;;;5071201;28;20643;-68
2023/09/26 12:29:50;;;;;;;6.60;5.77;;;23.40;99.90;;;;;;5071033;28;20509;-69